Weather at Torremocha de Jiloca Airport

Public forecast

Using degrees Celsius for public forecast. Weather courtesy of forecast.io.

Closest aviation weather report (METAR) to Torremocha de Jiloca Airport

Closest report is Teruel Airport, 12.2 nm (22.6 km) S. Retrieved 2021/04/17 11:00 UTC (28 minutes ago):

LETL 171100Z AUTO 35016G30KT CAVOK 08/M05 Q1017

Closest aviation forecast (TAF) to Torremocha de Jiloca Airport

Closest forecast is Teruel Airport, 12.2 nm (22.6 km) S. Retrieved 2021/04/17 06:00 UTC (5 hours ago):

TAF LETL 170500Z 1706/1806 35008KT 9999 SCT030 TX13/1714Z TN00/1706Z BECMG 1707/1709 35018KT TEMPO 1709/1718 35018G28KT